Time;durP1;ratioP1;P1;durP2;ratioP2;P2;SDS_P1;SDS_P2;PMS_P1;PMS_P2;Temp;Humidity;BMP_temperature;BMP_pressure;BME280_temperature;BME280_humidity;BME280_pressure;Samples;Min_cycle;Max_cycle;Signal;HPM_P1;HPM_P2
2023/01/03 00:01:35;;;;;;;11.17;4.33;;;;;;;;;;5070868;28;20475;-79
2023/01/03 00:04:01;;;;;;;10.00;3.23;;;;;;;;;;5067136;28;20032;-79
2023/01/03 00:06:27;;;;;;;8.40;3.67;;;;;;;;;;5069340;28;20047;-79
2023/01/03 00:08:53;;;;;;;10.20;3.50;;;;;;;;;;5070291;28;20452;-79
2023/01/03 00:12:22;;;;;;;9.87;3.63;;;;;;;;;;5069117;28;20024;-79
2023/01/03 00:14:09;;;;;;;7.57;3.33;;;;;;;;;;5070127;28;20016;-78
2023/01/03 00:16:34;;;;;;;7.90;3.13;;;;;;;;;;5069414;28;20016;-78
2023/01/03 00:18:59;;;;;;;6.33;3.10;;;;;;;;;;5069108;28;20024;-79
2023/01/03 00:21:24;;;;;;;6.83;3.07;;;;;;;;;;5069394;28;20077;-79
2023/01/03 00:23:49;;;;;;;7.67;3.17;;;;;;;;;;5055418;28;20029;-79
2023/01/03 00:26:15;;;;;;;6.70;3.50;;;;;;;;;;5065368;28;20123;-78
2023/01/03 00:28:40;;;;;;;7.33;3.20;;;;;;;;;;5072262;28;20016;-78
2023/01/03 00:31:07;;;;;;;8.90;3.40;;;;;;;;;;5072878;28;20044;-78
2023/01/03 00:33:32;;;;;;;16.10;3.60;;;;;;;;;;5072125;28;20162;-78
2023/01/03 00:36:00;;;;;;;7.77;3.37;;;;;;;;;;5072791;28;20071;-78
2023/01/03 00:38:25;;;;;;;7.57;3.20;;;;;;;;;;5072837;28;20165;-79
2023/01/03 00:40:51;;;;;;;7.57;3.27;;;;;;;;;;5065086;28;20082;-78
2023/01/03 00:43:28;;;;;;;6.53;3.10;;;;;;;;;;5072324;28;20035;-78
2023/01/03 00:45:53;;;;;;;5.87;3.17;;;;;;;;;;5061298;28;20009;-78
2023/01/03 00:48:18;;;;;;;6.10;2.90;;;;;;;;;;5072393;28;20030;-79
2023/01/03 00:50:43;;;;;;;5.20;2.97;;;;;;;;;;5072296;28;20028;-79
2023/01/03 00:53:09;;;;;;;7.80;2.80;;;;;;;;;;5073361;28;20027;-79
2023/01/03 00:55:34;;;;;;;6.40;3.10;;;;;;;;;;5072493;28;20028;-79
2023/01/03 00:57:59;;;;;;;7.13;3.27;;;;;;;;;;5065638;28;20082;-78
2023/01/03 01:00:24;;;;;;;8.27;3.10;;;;;;;;;;5066347;28;20024;-78
2023/01/03 01:02:52;;;;;;;7.40;3.37;;;;;;;;;;5071741;28;20153;-79
2023/01/03 01:05:17;;;;;;;8.30;3.10;;;;;;;;;;5073521;28;20023;-79
2023/01/03 01:07:42;;;;;;;6.70;3.10;;;;;;;;;;5071899;28;20021;-78
2023/01/03 01:10:07;;;;;;;9.67;3.53;;;;;;;;;;5072054;28;20320;-79
2023/01/03 01:12:33;;;;;;;8.90;2.97;;;;;;;;;;5072028;28;20028;-79
2023/01/03 01:14:58;;;;;;;6.37;3.20;;;;;;;;;;5071640;28;20025;-78
2023/01/03 01:17:23;;;;;;;8.90;3.00;;;;;;;;;;5050914;28;20463;-79
2023/01/03 01:19:48;;;;;;;6.20;2.97;;;;;;;;;;5054716;28;20028;-78
2023/01/03 01:22:13;;;;;;;12.27;3.53;;;;;;;;;;5071398;28;20031;-78
2023/01/03 01:24:39;;;;;;;6.23;3.13;;;;;;;;;;5071888;28;20028;-79
2023/01/03 01:27:04;;;;;;;8.07;3.00;;;;;;;;;;5071765;28;20472;-78
2023/01/03 01:29:29;;;;;;;10.27;3.03;;;;;;;;;;5071567;28;20123;-79
2023/01/03 01:31:54;;;;;;;7.57;2.93;;;;;;;;;;5070427;28;20017;-79
2023/01/03 01:34:20;;;;;;;10.80;3.60;;;;;;;;;;5067516;28;20020;-79
2023/01/03 01:36:45;;;;;;;8.13;3.30;;;;;;;;;;5071580;28;20120;-79
2023/01/03 01:39:15;;;;;;;7.37;3.10;;;;;;;;;;5071644;28;20082;-79
2023/01/03 01:44:42;;;;;;;5.63;3.03;;;;;;;;;;5062306;28;20020;-79
2023/01/03 01:47:13;;;;;;;5.93;2.97;;;;;;;;;;5062857;28;20016;-79
2023/01/03 01:49:39;;;;;;;10.77;3.50;;;;;;;;;;5071483;28;20096;-79
2023/01/03 01:52:05;;;;;;;7.37;3.20;;;;;;;;;;5055659;28;20028;-79
2023/01/03 01:54:30;;;;;;;6.67;3.50;;;;;;;;;;5070958;28;20388;-79
2023/01/03 01:56:56;;;;;;;6.10;3.10;;;;;;;;;;5070982;28;20115;-79
2023/01/03 01:59:21;;;;;;;8.67;3.50;;;;;;;;;;5070793;28;20036;-79
2023/01/03 02:01:46;;;;;;;5.93;3.13;;;;;;;;;;5071082;28;20024;-79
2023/01/03 02:04:23;;;;;;;6.33;2.93;;;;;;;;;;5070815;28;20023;-78
2023/01/03 02:06:49;;;;;;;7.60;3.40;;;;;;;;;;5065859;28;20009;-79
2023/01/03 02:09:15;;;;;;;5.33;3.20;;;;;;;;;;5051954;28;20013;-78
2023/01/03 02:13:04;;;;;;;6.37;3.37;;;;;;;;;;5062473;28;20025;-78
2023/01/03 02:14:48;;;;;;;6.93;3.30;;;;;;;;;;5066116;28;20021;-78
2023/01/03 02:17:40;;;;;;;6.53;3.27;;;;;;;;;;5070438;28;20008;-79
2023/01/03 02:20:17;;;;;;;8.47;3.50;;;;;;;;;;5069315;28;20495;-78
2023/01/03 02:23:01;;;;;;;9.33;3.47;;;;;;;;;;5070640;28;20036;-78
2023/01/03 02:25:38;;;;;;;6.87;3.70;;;;;;;;;;5070561;28;20024;-79
2023/01/03 02:28:04;;;;;;;7.03;2.80;;;;;;;;;;5062425;28;20368;-80
2023/01/03 02:30:40;;;;;;;8.00;3.33;;;;;;;;;;5070198;28;20021;-79
2023/01/03 02:33:12;;;;;;;7.80;3.00;;;;;;;;;;5071216;28;20425;-78
2023/01/03 02:35:50;;;;;;;7.27;3.47;;;;;;;;;;5070208;28;20017;-79
2023/01/03 02:38:21;;;;;;;8.03;3.17;;;;;;;;;;5071640;28;20074;-78
2023/01/03 02:40:54;;;;;;;7.47;3.47;;;;;;;;;;5071729;28;20028;-79
2023/01/03 02:43:20;;;;;;;7.90;4.17;;;;;;;;;;5070939;28;20063;-79
2023/01/03 02:45:47;;;;;;;7.03;3.47;;;;;;;;;;5057306;28;20487;-79
2023/01/03 02:48:13;;;;;;;7.13;3.07;;;;;;;;;;5070589;28;20333;-79
2023/01/03 02:50:41;;;;;;;6.03;3.30;;;;;;;;;;5071289;28;20024;-79
2023/01/03 02:53:08;;;;;;;9.63;3.87;;;;;;;;;;5071393;28;20337;-79
2023/01/03 02:55:35;;;;;;;10.30;3.80;;;;;;;;;;5071611;28;20024;-79
2023/01/03 02:58:03;;;;;;;9.27;4.47;;;;;;;;;;5054943;28;20100;-79
2023/01/03 03:00:29;;;;;;;6.67;3.63;;;;;;;;;;5050435;28;20448;-79
2023/01/03 03:03:00;;;;;;;8.27;3.60;;;;;;;;;;5048754;28;20054;-79
2023/01/03 03:05:28;;;;;;;9.70;3.67;;;;;;;;;;5049972;28;20019;-78
2023/01/03 03:07:53;;;;;;;9.20;3.87;;;;;;;;;;5049851;28;20027;-79
2023/01/03 03:13:13;;;;;;;6.60;3.37;;;;;;;;;;5051285;28;20109;-80
2023/01/03 03:15:44;;;;;;;7.30;3.90;;;;;;;;;;5049988;28;20037;-78
2023/01/03 03:18:18;;;;;;;10.17;3.90;;;;;;;;;;5049463;28;20064;-78
2023/01/03 03:26:25;;;;;;;11.03;4.63;;;;;;;;;;5051652;28;20032;-79
2023/01/03 03:28:53;;;;;;;11.73;4.70;;;;;;;;;;5050432;28;20009;-79
2023/01/03 03:31:18;;;;;;;8.67;4.00;;;;;;;;;;5044338;28;20021;-79
2023/01/03 03:33:49;;;;;;;11.20;5.10;;;;;;;;;;5051270;28;20377;-78
2023/01/03 03:36:18;;;;;;;10.47;4.13;;;;;;;;;;5050146;28;20021;-79
2023/01/03 03:38:44;;;;;;;13.17;4.33;;;;;;;;;;5048667;28;20028;-79
2023/01/03 03:47:08;;;;;;;10.90;4.30;;;;;;;;;;5047251;28;20582;-79
2023/01/03 03:49:38;;;;;;;12.67;4.97;;;;;;;;;;5049741;28;20373;-79
2023/01/03 03:52:14;;;;;;;13.37;4.77;;;;;;;;;;5049367;28;20025;-79
2023/01/03 03:54:40;;;;;;;10.03;4.47;;;;;;;;;;5050934;28;20025;-79
2023/01/03 03:57:09;;;;;;;10.30;4.80;;;;;;;;;;5051848;28;20233;-79
2023/01/03 03:59:35;;;;;;;10.93;4.53;;;;;;;;;;5054374;28;20032;-79
2023/01/03 04:02:03;;;;;;;9.40;4.63;;;;;;;;;;5052377;28;20029;-79
2023/01/03 04:04:31;;;;;;;11.83;4.57;;;;;;;;;;5072595;28;20025;-79
2023/01/03 04:06:57;;;;;;;11.33;4.50;;;;;;;;;;5054540;28;20021;-79
2023/01/03 04:09:22;;;;;;;14.87;5.23;;;;;;;;;;5053307;28;20024;-79
2023/01/03 04:11:47;;;;;;;12.17;5.00;;;;;;;;;;5053266;28;20481;-79
2023/01/03 04:14:12;;;;;;;10.87;5.00;;;;;;;;;;5051419;28;20466;-79
2023/01/03 04:16:39;;;;;;;11.03;4.57;;;;;;;;;;5053305;28;20391;-79
2023/01/03 04:19:04;;;;;;;11.80;4.83;;;;;;;;;;5052918;28;20043;-79
2023/01/03 04:21:30;;;;;;;9.77;4.67;;;;;;;;;;5048993;28;20025;-79
2023/01/03 04:23:55;;;;;;;13.97;4.97;;;;;;;;;;5043855;28;20108;-78
2023/01/03 04:26:20;;;;;;;10.30;4.13;;;;;;;;;;5052951;28;20528;-79
2023/01/03 04:28:45;;;;;;;9.07;4.37;;;;;;;;;;5054194;28;20088;-79
2023/01/03 04:31:10;;;;;;;8.57;3.87;;;;;;;;;;5051499;28;20024;-79
2023/01/03 04:33:36;;;;;;;7.93;4.10;;;;;;;;;;5052731;28;20102;-79
2023/01/03 04:36:01;;;;;;;7.57;4.13;;;;;;;;;;5052678;28;20171;-79
2023/01/03 04:38:26;;;;;;;8.23;3.83;;;;;;;;;;5052637;28;20530;-78
2023/01/03 04:40:51;;;;;;;9.23;4.40;;;;;;;;;;5052476;28;20469;-79
2023/01/03 04:46:00;;;;;;;11.60;3.88;;;;;;;;;;5048163;28;20397;-79
2023/01/03 04:48:26;;;;;;;7.63;3.80;;;;;;;;;;5052317;28;20025;-79
2023/01/03 04:50:55;;;;;;;7.75;3.60;;;;;;;;;;5051536;28;20039;-79
2023/01/03 04:53:21;;;;;;;7.10;3.58;;;;;;;;;;5052108;28;20017;-79
2023/01/03 04:55:47;;;;;;;6.57;3.30;;;;;;;;;;5052582;28;20027;-79
2023/01/03 04:58:12;;;;;;;7.18;3.53;;;;;;;;;;5052522;28;20447;-79
2023/01/03 05:00:37;;;;;;;6.43;3.35;;;;;;;;;;5052347;28;20020;-79
2023/01/03 05:03:02;;;;;;;7.47;2.92;;;;;;;;;;5051621;28;20446;-79
2023/01/03 05:05:28;;;;;;;4.93;2.90;;;;;;;;;;5052031;28;20020;-79
2023/01/03 05:07:53;;;;;;;6.82;2.80;;;;;;;;;;5050929;28;20017;-79
2023/01/03 05:10:18;;;;;;;8.18;3.25;;;;;;;;;;5052520;28;20052;-79
2023/01/03 05:12:58;;;;;;;6.43;2.97;;;;;;;;;;5051779;28;20086;-79
2023/01/03 05:15:23;;;;;;;7.18;3.15;;;;;;;;;;5053889;28;20507;-79
2023/01/03 05:17:48;;;;;;;8.98;3.15;;;;;;;;;;5053101;28;20056;-79
2023/01/03 05:25:50;;;;;;;6.38;2.70;;;;;;;;;;5051091;28;20025;-79
2023/01/03 05:28:17;;;;;;;5.18;2.50;;;;;;;;;;5051593;28;20017;-80
2023/01/03 05:30:42;;;;;;;6.93;2.40;;;;;;;;;;5051894;28;20047;-79
2023/01/03 05:33:07;;;;;;;6.05;2.58;;;;;;;;;;5051568;28;20028;-79
2023/01/03 05:35:32;;;;;;;5.03;2.47;;;;;;;;;;5053173;28;20028;-80
2023/01/03 05:37:58;;;;;;;6.78;2.63;;;;;;;;;;5051411;28;20598;-79
2023/01/03 05:40:23;;;;;;;5.15;2.53;;;;;;;;;;5051712;28;20132;-79
2023/01/03 05:42:48;;;;;;;4.55;2.38;;;;;;;;;;5050455;28;20036;-79
2023/01/03 05:45:13;;;;;;;5.93;2.60;;;;;;;;;;5051235;28;20025;-79
2023/01/03 05:47:38;;;;;;;4.95;2.42;;;;;;;;;;5052762;28;20044;-79
2023/01/03 05:50:04;;;;;;;6.97;2.78;;;;;;;;;;5051386;28;20436;-79
2023/01/03 05:52:29;;;;;;;10.07;2.88;;;;;;;;;;5052735;28;20017;-79
2023/01/03 05:54:55;;;;;;;5.20;2.85;;;;;;;;;;5051462;28;20071;-79
2023/01/03 05:57:20;;;;;;;6.93;2.80;;;;;;;;;;5052717;28;20020;-79
2023/01/03 05:59:45;;;;;;;8.00;3.13;;;;;;;;;;5050391;28;20529;-79
2023/01/03 06:02:10;;;;;;;8.82;3.20;;;;;;;;;;5052146;28;20453;-79
2023/01/03 06:04:35;;;;;;;5.50;2.72;;;;;;;;;;5052228;28;20100;-79
2023/01/03 06:07:01;;;;;;;5.60;3.40;;;;;;;;;;5051016;28;20016;-79
2023/01/03 06:09:26;;;;;;;6.25;3.30;;;;;;;;;;5051257;28;20105;-79
2023/01/03 06:11:51;;;;;;;8.10;3.80;;;;;;;;;;5051027;28;20032;-79
2023/01/03 06:14:18;;;;;;;8.35;3.63;;;;;;;;;;5050950;28;20028;-79
2023/01/03 06:19:27;;;;;;;11.23;3.70;;;;;;;;;;5049784;28;20431;-78
2023/01/03 06:21:53;;;;;;;9.85;4.18;;;;;;;;;;5050573;28;20108;-79
2023/01/03 06:24:18;;;;;;;8.45;4.40;;;;;;;;;;5050659;28;20029;-79
2023/01/03 06:26:43;;;;;;;10.75;3.42;;;;;;;;;;5050768;28;20021;-79
2023/01/03 06:29:08;;;;;;;11.02;5.22;;;;;;;;;;5050548;28;20021;-79
2023/01/03 06:31:34;;;;;;;10.65;5.38;;;;;;;;;;5051880;28;20013;-79
2023/01/03 06:33:59;;;;;;;16.40;6.50;;;;;;;;;;5049611;28;20215;-79
2023/01/03 06:36:27;;;;;;;12.93;5.95;;;;;;;;;;5050371;28;20051;-79
2023/01/03 06:38:52;;;;;;;15.45;6.43;;;;;;;;;;5050344;28;20021;-79
2023/01/03 06:41:17;;;;;;;16.07;7.17;;;;;;;;;;5051987;28;20112;-78
2023/01/03 06:43:43;;;;;;;20.17;6.50;;;;;;;;;;5050593;28;20031;-78
2023/01/03 06:54:22;;;;;;;16.43;7.50;;;;;;;;;;5051913;28;20024;-79
2023/01/03 06:56:48;;;;;;;14.52;5.28;;;;;;;;;;5051451;28;20526;-79
2023/01/03 06:59:13;;;;;;;13.57;5.65;;;;;;;;;;5050244;28;20108;-79
2023/01/03 07:01:39;;;;;;;11.45;6.00;;;;;;;;;;5051825;28;20468;-79
2023/01/03 07:04:04;;;;;;;11.00;5.60;;;;;;;;;;5049753;28;20021;-78
2023/01/03 07:06:29;;;;;;;15.35;6.55;;;;;;;;;;5049985;28;20028;-79
2023/01/03 07:08:54;;;;;;;12.77;5.05;;;;;;;;;;5049006;28;20021;-79
2023/01/03 07:11:22;;;;;;;13.38;5.75;;;;;;;;;;5048962;28;20021;-79
2023/01/03 07:14:01;;;;;;;12.40;5.65;;;;;;;;;;5049840;28;20029;-79
2023/01/03 07:16:27;;;;;;;15.20;6.03;;;;;;;;;;5050102;28;20033;-79
2023/01/03 07:18:52;;;;;;;15.00;6.65;;;;;;;;;;5049880;28;20120;-78
2023/01/03 07:21:18;;;;;;;15.00;6.35;;;;;;;;;;5050111;28;20120;-78
2023/01/03 07:23:43;;;;;;;13.27;6.15;;;;;;;;;;5048420;28;20029;-79
2023/01/03 07:26:08;;;;;;;14.82;6.63;;;;;;;;;;5051187;28;20048;-79
2023/01/03 07:28:33;;;;;;;15.90;6.63;;;;;;;;;;5049088;28;20053;-79
2023/01/03 07:31:00;;;;;;;13.15;6.72;;;;;;;;;;5051082;28;20108;-81
2023/01/03 07:33:25;;;;;;;17.07;5.97;;;;;;;;;;5054048;28;20040;-80
2023/01/03 07:35:50;;;;;;;13.27;5.80;;;;;;;;;;5053587;28;20024;-80
2023/01/03 07:38:15;;;;;;;14.65;6.20;;;;;;;;;;5054301;28;20055;-81
2023/01/03 07:40:40;;;;;;;16.57;7.67;;;;;;;;;;5052740;28;20021;-80
2023/01/03 07:45:51;;;;;;;13.40;6.70;;;;;;;;;;5042694;28;20079;-80
2023/01/03 07:48:16;;;;;;;19.00;7.97;;;;;;;;;;5046320;28;20029;-80
2023/01/03 07:50:41;;;;;;;14.10;6.60;;;;;;;;;;5052885;28;20461;-81
2023/01/03 07:53:07;;;;;;;20.53;7.40;;;;;;;;;;5050138;28;20052;-80
2023/01/03 07:55:33;;;;;;;16.97;7.53;;;;;;;;;;5052401;28;20021;-81
2023/01/03 07:57:58;;;;;;;16.33;7.40;;;;;;;;;;5045935;28;20108;-81
2023/01/03 08:00:23;;;;;;;18.97;7.93;;;;;;;;;;5047536;28;20037;-81
2023/01/03 08:02:51;;;;;;;18.97;7.87;;;;;;;;;;5045024;28;20483;-80
2023/01/03 08:05:16;;;;;;;14.70;7.43;;;;;;;;;;5046449;28;20024;-81
2023/01/03 08:07:41;;;;;;;16.37;7.73;;;;;;;;;;5047259;28;20032;-80
2023/01/03 08:15:38;;;;;;;14.40;7.10;;;;;;;;;;5051855;28;20028;-82
2023/01/03 08:18:03;;;;;;;15.50;7.20;;;;;;;;;;5051927;28;20403;-82
2023/01/03 08:20:28;;;;;;;13.07;6.07;;;;;;;;;;5054515;28;20103;-81
2023/01/03 08:22:53;;;;;;;15.37;6.77;;;;;;;;;;5044181;28;20617;-81
2023/01/03 08:25:19;;;;;;;12.67;6.43;;;;;;;;;;5049933;28;20074;-81
2023/01/03 08:27:44;;;;;;;12.48;5.63;;;;;;;;;;5052617;28;20104;-81
2023/01/03 08:30:09;;;;;;;13.95;6.38;;;;;;;;;;5049225;28;20104;-80
2023/01/03 08:32:35;;;;;;;10.47;5.70;;;;;;;;;;5051136;28;20095;-81
2023/01/03 08:35:00;;;;;;;14.63;6.68;;;;;;;;;;5051435;28;20090;-81
2023/01/03 08:37:26;;;;;;;14.83;6.70;;;;;;;;;;5052578;28;20017;-79
2023/01/03 08:39:55;;;;;;;14.50;6.47;;;;;;;;;;5051984;28;20028;-80
2023/01/03 08:42:22;;;;;;;19.50;7.03;;;;;;;;;;5050707;28;20044;-81
2023/01/03 08:44:48;;;;;;;13.70;5.75;;;;;;;;;;5051919;28;20055;-85
2023/01/03 08:47:14;;;;;;;11.00;5.27;;;;;;;;;;5048942;28;20036;-82
2023/01/03 08:49:39;;;;;;;10.52;5.78;;;;;;;;;;5051108;28;20021;-82
2023/01/03 08:52:04;;;;;;;11.70;5.57;;;;;;;;;;5049019;28;20025;-83
2023/01/03 08:54:30;;;;;;;16.55;5.78;;;;;;;;;;5049903;28;20071;-82
2023/01/03 08:56:55;;;;;;;12.25;5.90;;;;;;;;;;5047108;28;20112;-81
2023/01/03 08:59:20;;;;;;;10.27;4.63;;;;;;;;;;5051490;28;20124;-82
2023/01/03 09:01:45;;;;;;;10.07;5.00;;;;;;;;;;5050060;28;20025;-81
2023/01/03 09:04:11;;;;;;;11.82;5.22;;;;;;;;;;5049230;28;20029;-82
2023/01/03 09:06:36;;;;;;;10.18;5.30;;;;;;;;;;5053198;28;20021;-83
2023/01/03 09:09:05;;;;;;;12.13;5.83;;;;;;;;;;5048974;28;20028;-81
2023/01/03 09:11:30;;;;;;;15.97;6.80;;;;;;;;;;5045183;28;20392;-82
2023/01/03 09:13:56;;;;;;;16.67;6.33;;;;;;;;;;5049894;28;20108;-80
2023/01/03 09:16:21;;;;;;;10.13;5.07;;;;;;;;;;5049725;28;20040;-81
2023/01/03 09:18:46;;;;;;;18.37;6.53;;;;;;;;;;5050553;28;20053;-83
2023/01/03 09:21:11;;;;;;;19.00;6.00;;;;;;;;;;5050495;28;20042;-82
2023/01/03 09:23:36;;;;;;;17.80;6.87;;;;;;;;;;5051036;28;20013;-82
2023/01/03 09:26:02;;;;;;;19.67;5.87;;;;;;;;;;5043969;28;20048;-82
2023/01/03 09:28:27;;;;;;;11.13;4.40;;;;;;;;;;5052684;28;20031;-82
2023/01/03 09:30:53;;;;;;;15.75;4.20;;;;;;;;;;5038204;28;20014;-83
2023/01/03 09:33:18;;;;;;;8.25;4.20;;;;;;;;;;5050189;28;20028;-84
2023/01/03 09:35:43;;;;;;;11.23;4.30;;;;;;;;;;5051061;28;20495;-83
2023/01/03 09:38:09;;;;;;;12.93;4.75;;;;;;;;;;5051608;28;20390;-82
2023/01/03 09:40:41;;;;;;;7.40;3.95;;;;;;;;;;5050354;28;20499;-82
2023/01/03 09:43:12;;;;;;;11.25;5.15;;;;;;;;;;5046420;28;20128;-82
2023/01/03 09:45:38;;;;;;;10.05;3.33;;;;;;;;;;5075748;28;20032;-82
2023/01/03 09:48:04;;;;;;;10.10;4.22;;;;;;;;;;5048370;28;20099;-83
2023/01/03 09:50:31;;;;;;;12.00;5.15;;;;;;;;;;5048675;28;20655;-82
2023/01/03 10:04:14;;;;;;;14.38;4.85;;;;;;;;;;5051187;28;20479;-82
2023/01/03 10:06:54;;;;;;;9.25;4.05;;;;;;;;;;5049024;28;20024;-83
2023/01/03 10:09:22;;;;;;;6.20;3.60;;;;;;;;;;5080399;28;20035;-84
2023/01/03 10:11:47;;;;;;;12.88;4.07;;;;;;;;;;5049162;28;20025;-83
2023/01/03 10:14:28;;;;;;;12.18;4.57;;;;;;;;;;5042473;28;20499;-83
2023/01/03 10:17:12;;;;;;;8.05;4.03;;;;;;;;;;5043887;28;20464;-83
2023/01/03 10:19:49;;;;;;;10.48;4.38;;;;;;;;;;5049626;28;20036;-84
2023/01/03 10:22:17;;;;;;;8.15;3.83;;;;;;;;;;5050351;28;20028;-85
2023/01/03 10:24:49;;;;;;;11.82;4.07;;;;;;;;;;5049856;28;20513;-85
2023/01/03 10:27:16;;;;;;;8.00;4.50;;;;;;;;;;5050341;28;20111;-84
2023/01/03 10:29:42;;;;;;;13.93;3.67;;;;;;;;;;5049413;28;20028;-85
2023/01/03 10:32:16;;;;;;;9.32;4.13;;;;;;;;;;5048658;28;20461;-85
2023/01/03 10:34:41;;;;;;;10.70;3.80;;;;;;;;;;5048990;28;20041;-85
2023/01/03 10:37:16;;;;;;;13.65;4.10;;;;;;;;;;5049126;28;20079;-85
2023/01/03 10:39:41;;;;;;;8.30;3.90;;;;;;;;;;5049396;28;20028;-84
2023/01/03 10:42:06;;;;;;;9.75;4.00;;;;;;;;;;5049743;28;20028;-84
2023/01/03 10:44:31;;;;;;;12.15;4.78;;;;;;;;;;5046067;28;20017;-84
2023/01/03 10:46:58;;;;;;;9.93;4.18;;;;;;;;;;5049053;28;20590;-84
2023/01/03 10:49:26;;;;;;;13.18;4.38;;;;;;;;;;5048769;28;20471;-84
2023/01/03 10:51:56;;;;;;;10.43;4.05;;;;;;;;;;5062614;28;20083;-84
2023/01/03 10:54:27;;;;;;;12.95;4.43;;;;;;;;;;5048415;28;20017;-85
2023/01/03 10:56:52;;;;;;;11.25;4.00;;;;;;;;;;5045688;28;20068;-84
2023/01/03 10:59:21;;;;;;;10.55;4.32;;;;;;;;;;5049742;28;20651;-84
2023/01/03 11:01:58;;;;;;;13.25;4.78;;;;;;;;;;5049122;28;20040;-85
2023/01/03 11:04:24;;;;;;;13.55;5.53;;;;;;;;;;5050329;28;20464;-85
2023/01/03 11:06:55;;;;;;;18.05;7.03;;;;;;;;;;5047748;28;20031;-84
2023/01/03 11:09:20;;;;;;;10.37;4.43;;;;;;;;;;5049181;28;20028;-83
2023/01/03 11:11:52;;;;;;;13.35;4.95;;;;;;;;;;5048849;28;20120;-85
2023/01/03 11:14:25;;;;;;;10.35;3.97;;;;;;;;;;5078393;28;20433;-85
2023/01/03 11:17:13;;;;;;;11.63;3.92;;;;;;;;;;5045405;28;20105;-85
2023/01/03 11:19:38;;;;;;;12.30;5.10;;;;;;;;;;5048161;28;20036;-82
2023/01/03 11:22:24;;;;;;;13.93;4.28;;;;;;;;;;5048411;28;20372;-85
2023/01/03 11:24:59;;;;;;;10.10;4.22;;;;;;;;;;5050627;28;20368;-86
2023/01/03 11:27:43;;;;;;;13.70;4.32;;;;;;;;;;5045544;28;20025;-86
2023/01/03 11:30:08;;;;;;;12.05;3.53;;;;;;;;;;5061119;28;20357;-87
2023/01/03 11:33:03;;;;;;;12.90;4.35;;;;;;;;;;5056400;28;20021;-85
2023/01/03 11:35:49;;;;;;;9.85;3.65;;;;;;;;;;5043145;28;20040;-86
2023/01/03 11:38:43;;;;;;;9.98;4.35;;;;;;;;;;5047511;28;20009;-85
2023/01/03 11:41:11;;;;;;;11.02;3.80;;;;;;;;;;5041328;28;20021;-83
2023/01/03 11:43:36;;;;;;;7.82;4.05;;;;;;;;;;5047523;28;20425;-85
2023/01/03 11:46:05;;;;;;;9.60;4.00;;;;;;;;;;5046242;28;20025;-87
2023/01/03 11:48:46;;;;;;;10.18;3.80;;;;;;;;;;5047037;28;20026;-84
2023/01/03 11:51:37;;;;;;;12.13;3.95;;;;;;;;;;5046430;28;20017;-84
2023/01/03 11:54:04;;;;;;;7.93;3.67;;;;;;;;;;5028050;28;20119;-84
2023/01/03 11:56:37;;;;;;;14.82;4.97;;;;;;;;;;5043754;28;20472;-83
2023/01/03 11:59:20;;;;;;;8.02;3.90;;;;;;;;;;5046561;28;20107;-86
2023/01/03 12:01:47;;;;;;;15.10;4.00;;;;;;;;;;5043982;28;20021;-84
2023/01/03 12:04:25;;;;;;;6.53;3.38;;;;;;;;;;5045759;28;20484;-84
2023/01/03 12:06:59;;;;;;;5.80;3.13;;;;;;;;;;5046607;28;20017;-84
2023/01/03 12:09:36;;;;;;;8.32;3.00;;;;;;;;;;5048205;28;20120;-84
2023/01/03 12:12:11;;;;;;;7.78;3.38;;;;;;;;;;5056275;28;20013;-84
2023/01/03 12:14:44;;;;;;;8.98;2.55;;;;;;;;;;5046714;28;20028;-84
2023/01/03 12:17:09;;;;;;;;;;;;;;;;;;5050882;28;20031;-84
2023/01/03 12:19:34;;;;;;;6.15;2.70;;;;;;;;;;5051601;28;20007;-84
2023/01/03 12:22:03;;;;;;;8.07;2.95;;;;;;;;;;5050897;28;20349;-84
2023/01/03 12:24:29;;;;;;;9.27;3.20;;;;;;;;;;5052001;28;20436;-83
2023/01/03 12:26:55;;;;;;;6.45;2.65;;;;;;;;;;5052321;28;20029;-84
2023/01/03 12:29:27;;;;;;;8.13;2.90;;;;;;;;;;5050122;28;20025;-84
2023/01/03 12:31:56;;;;;;;7.28;2.10;;;;;;;;;;5053465;28;20017;-84
2023/01/03 12:34:27;;;;;;;5.53;2.25;;;;;;;;;;5051191;28;20115;-83
2023/01/03 12:37:10;;;;;;;7.65;1.98;;;;;;;;;;5049721;28;20406;-84
2023/01/03 12:39:38;;;;;;;8.18;2.08;;;;;;;;;;5047725;28;20071;-83
2023/01/03 12:42:09;;;;;;;8.13;2.10;;;;;;;;;;5052041;28;20032;-84
2023/01/03 12:44:39;;;;;;;7.93;2.22;;;;;;;;;;5049261;28;20465;-83
2023/01/03 12:47:05;;;;;;;6.80;2.13;;;;;;;;;;5050697;28;20107;-84
2023/01/03 12:49:30;;;;;;;6.65;2.92;;;;;;;;;;5051527;28;20120;-84
2023/01/03 12:51:55;;;;;;;5.07;2.45;;;;;;;;;;5048565;28;20823;-86
2023/01/03 12:54:28;;;;;;;6.55;1.92;;;;;;;;;;5050823;28;20107;-84
2023/01/03 12:56:53;;;;;;;;;;;;;;;;;;5049033;28;20025;-85
2023/01/03 12:59:18;;;;;;;7.07;2.63;;;;;;;;;;5051410;28;19969;-86
2023/01/03 13:01:46;;;;;;;8.48;2.03;;;;;;;;;;5051197;28;20242;-85
2023/01/03 13:04:11;;;;;;;9.95;2.47;;;;;;;;;;5050424;28;20509;-85
2023/01/03 13:06:40;;;;;;;4.97;2.10;;;;;;;;;;5051478;28;20047;-84
2023/01/03 13:09:07;;;;;;;8.15;2.00;;;;;;;;;;5050924;28;20021;-85
2023/01/03 13:11:34;;;;;;;5.13;2.17;;;;;;;;;;5042382;28;20032;-86
2023/01/03 13:14:16;;;;;;;9.60;2.38;;;;;;;;;;5048796;28;21336;-85
2023/01/03 13:16:48;;;;;;;6.55;1.88;;;;;;;;;;5045159;28;20040;-86
2023/01/03 13:19:22;;;;;;;5.35;2.35;;;;;;;;;;5050640;28;20070;-85
2023/01/03 13:21:49;;;;;;;7.90;2.97;;;;;;;;;;5048492;28;20013;-86
2023/01/03 13:24:34;;;;;;;7.88;2.33;;;;;;;;;;5046133;28;20021;-84
2023/01/03 13:27:26;;;;;;;13.45;3.15;;;;;;;;;;5035770;28;20439;-84
2023/01/03 13:29:52;;;;;;;7.60;2.27;;;;;;;;;;5048813;28;20437;-85
2023/01/03 13:32:20;;;;;;;10.50;2.80;;;;;;;;;;5049771;28;20052;-85
2023/01/03 13:34:57;;;;;;;4.50;1.70;;;;;;;;;;5049767;28;20051;-84
2023/01/03 13:37:23;;;;;;;8.98;3.45;;;;;;;;;;5047349;28;20041;-80
2023/01/03 13:39:48;;;;;;;7.88;3.08;;;;;;;;;;5048864;28;20067;-80
2023/01/03 13:42:40;;;;;;;11.43;3.90;;;;;;;;;;5050494;28;20024;-80
2023/01/03 13:45:14;;;;;;;11.02;2.70;;;;;;;;;;5059973;28;20037;-80
2023/01/03 13:47:50;;;;;;;7.40;2.38;;;;;;;;;;5046471;28;20016;-80
2023/01/03 13:50:19;;;;;;;8.75;3.00;;;;;;;;;;5048258;28;20016;-80
2023/01/03 13:52:57;;;;;;;6.60;2.30;;;;;;;;;;5049811;28;20033;-80
2023/01/03 13:55:32;;;;;;;6.68;2.03;;;;;;;;;;5049320;28;20102;-80
2023/01/03 13:57:57;;;;;;;6.82;2.17;;;;;;;;;;5051268;28;20029;-79
2023/01/03 14:00:23;;;;;;;8.23;1.92;;;;;;;;;;5047785;28;20051;-79
2023/01/03 14:03:09;;;;;;;4.35;1.90;;;;;;;;;;5048659;28;20044;-80
2023/01/03 14:05:43;;;;;;;8.25;2.25;;;;;;;;;;5081104;28;20384;-79
2023/01/03 14:08:12;;;;;;;6.07;1.65;;;;;;;;;;5035102;28;20059;-79
2023/01/03 14:10:40;;;;;;;7.00;1.92;;;;;;;;;;5041360;28;20465;-80
2023/01/03 14:13:05;;;;;;;9.93;2.17;;;;;;;;;;5048437;28;20025;-80
2023/01/03 14:15:31;;;;;;;8.63;1.70;;;;;;;;;;5049511;28;20040;-80
2023/01/03 14:18:00;;;;;;;5.35;1.80;;;;;;;;;;5048506;28;20035;-80
2023/01/03 14:20:30;;;;;;;5.35;1.80;;;;;;;;;;5050618;28;20028;-80
2023/01/03 14:22:59;;;;;;;4.82;1.60;;;;;;;;;;5050903;28;20485;-80
2023/01/03 14:25:33;;;;;;;5.20;1.73;;;;;;;;;;5051338;28;20119;-80
2023/01/03 14:28:01;;;;;;;8.73;1.63;;;;;;;;;;5050945;28;20433;-80
2023/01/03 14:30:30;;;;;;;8.65;1.92;;;;;;;;;;5050103;28;20029;-80
2023/01/03 14:32:56;;;;;;;9.57;1.45;;;;;;;;;;5080778;28;20035;-80
2023/01/03 14:35:30;;;;;;;5.53;1.83;;;;;;;;;;5050552;28;20511;-79
2023/01/03 14:37:55;;;;;;;7.70;1.83;;;;;;;;;;5050319;28;20025;-80
2023/01/03 14:40:20;;;;;;;7.80;1.45;;;;;;;;;;5050221;28;20031;-80
2023/01/03 14:42:46;;;;;;;9.07;2.40;;;;;;;;;;5050287;28;20111;-80
2023/01/03 14:45:15;;;;;;;5.70;2.05;;;;;;;;;;5047895;28;20039;-80
2023/01/03 14:47:41;;;;;;;11.25;1.70;;;;;;;;;;5049802;28;20045;-80
2023/01/03 14:50:10;;;;;;;6.55;1.48;;;;;;;;;;5049496;28;20059;-80
2023/01/03 14:52:42;;;;;;;5.95;1.92;;;;;;;;;;5044691;28;20067;-80
2023/01/03 14:55:15;;;;;;;9.65;2.08;;;;;;;;;;5078717;28;20083;-80
2023/01/03 14:57:41;;;;;;;6.07;2.42;;;;;;;;;;5048830;28;20429;-80
2023/01/03 15:00:10;;;;;;;17.33;2.53;;;;;;;;;;5048854;28;20091;-80
2023/01/03 15:02:37;;;;;;;3.83;1.60;;;;;;;;;;5050492;28;20499;-80
2023/01/03 15:05:02;;;;;;;5.63;1.90;;;;;;;;;;5049234;28;20021;-80
2023/01/03 15:07:38;;;;;;;7.50;2.20;;;;;;;;;;5049594;28;20035;-80
2023/01/03 15:10:05;;;;;;;7.97;2.40;;;;;;;;;;5048894;28;20032;-80
2023/01/03 15:12:32;;;;;;;10.65;2.60;;;;;;;;;;5046031;28;20017;-80
2023/01/03 15:15:05;;;;;;;10.93;2.08;;;;;;;;;;5049162;28;20028;-79
2023/01/03 15:17:30;;;;;;;9.70;2.03;;;;;;;;;;5049403;28;20039;-80
2023/01/03 15:19:55;;;;;;;6.75;1.60;;;;;;;;;;5044071;28;20021;-80
2023/01/03 15:22:22;;;;;;;5.10;1.95;;;;;;;;;;5051425;28;20009;-80
2023/01/03 15:24:49;;;;;;;8.20;1.77;;;;;;;;;;5049375;28;20410;-80
2023/01/03 15:27:50;;;;;;;4.93;1.83;;;;;;;;;;5048126;28;20017;-80
2023/01/03 15:30:19;;;;;;;5.32;1.83;;;;;;;;;;5017734;28;20040;-80
2023/01/03 15:32:57;;;;;;;9.77;1.80;;;;;;;;;;5040444;28;20024;-80
2023/01/03 15:35:30;;;;;;;9.77;2.30;;;;;;;;;;5047604;28;20051;-79
2023/01/03 15:37:57;;;;;;;11.77;2.22;;;;;;;;;;5074997;28;20025;-79
2023/01/03 15:40:23;;;;;;;7.10;2.13;;;;;;;;;;5049747;28;20021;-79
2023/01/03 15:45:37;;;;;;;8.43;2.53;;;;;;;;;;5049789;28;20106;-79